Time;durP1;ratioP1;P1;durP2;ratioP2;P2;SDS_P1;SDS_P2;PMS_P1;PMS_P2;Temp;Humidity;BMP_temperature;BMP_pressure;BME280_temperature;BME280_humidity;BME280_pressure;Samples;Min_cycle;Max_cycle;Signal;HPM_P1;HPM_P2
2021/08/04 00:02:22;;;;;;;0.20;0.20;;;;;;;14.88;76.46;99416.47;4788001;29;20047;-79
2021/08/04 00:04:48;;;;;;;0.20;0.20;;;;;;;14.92;76.38;99422.38;4770099;29;20387;-77
2021/08/04 00:07:14;;;;;;;0.10;0.10;;;;;;;14.93;76.25;99424.91;4788940;29;20125;-81
2021/08/04 00:09:40;;;;;;;0.15;0.15;;;;;;;14.95;76.33;99422.88;4752586;29;20051;-81
2021/08/04 00:12:06;;;;;;;0.20;0.20;;;;;;;15.00;75.95;99433.19;4764082;29;20409;-81
2021/08/04 00:14:32;;;;;;;0.20;0.20;;;;;;;15.02;75.98;99427.56;4793681;29;20051;-79
2021/08/04 00:16:58;;;;;;;0.10;0.10;;;;;;;15.04;76.06;99431.78;4797055;29;20513;-83
2021/08/04 00:19:24;;;;;;;0.10;0.10;;;;;;;15.05;76.13;99433.47;4768957;29;20754;-79
2021/08/04 00:21:50;;;;;;;0.10;0.10;;;;;;;15.01;76.46;99432.16;4787202;29;20513;-80
2021/08/04 00:24:15;;;;;;;0.17;0.17;;;;;;;14.99;76.83;99428.78;4780824;29;20060;-80
2021/08/04 00:26:41;;;;;;;0.20;0.20;;;;;;;14.97;76.89;99425.38;4786304;29;20058;-82
2021/08/04 00:29:08;;;;;;;0.20;0.20;;;;;;;14.95;76.97;99433.75;4786590;29;20052;-81
2021/08/04 00:31:34;;;;;;;0.10;0.10;;;;;;;14.97;76.89;99430.84;4719568;30;20132;-80
2021/08/04 00:34:01;;;;;;;0.10;0.10;;;;;;;14.95;77.10;99427.44;4753967;29;20507;-81
2021/08/04 00:36:27;;;;;;;0.10;0.10;;;;;;;14.89;77.23;99434.47;4766294;30;20108;-81
2021/08/04 00:38:53;;;;;;;0.20;0.20;;;;;;;14.88;76.91;99432.81;4765707;29;20126;-79
2021/08/04 00:41:19;;;;;;;0.10;0.10;;;;;;;14.87;77.33;99441.13;4755436;30;20126;-81
2021/08/04 00:43:45;;;;;;;0.20;0.20;;;;;;;14.85;77.27;99437.75;4762226;29;20530;-81
2021/08/04 00:46:13;;;;;;;0.10;0.10;;;;;;;14.87;77.15;99430.25;4783607;29;20059;-80
2021/08/04 00:48:54;;;;;;;0.10;0.10;;;;;;;14.84;77.36;99436.88;4781723;29;20117;-81
2021/08/04 00:51:20;;;;;;;0.15;0.15;;;;;;;14.86;77.58;99434.00;4780149;29;20055;-81
2021/08/04 00:53:45;;;;;;;0.10;0.10;;;;;;;14.86;77.81;99428.56;4786724;29;20054;-82
2021/08/04 00:56:12;;;;;;;0.20;0.20;;;;;;;14.80;77.64;99437.44;4779865;29;20130;-79
2021/08/04 00:58:40;;;;;;;0.10;0.10;;;;;;;14.77;77.65;99437.81;4758999;30;20230;-79
2021/08/04 01:01:29;;;;;;;0.10;0.10;;;;;;;14.68;77.85;99443.34;4784214;29;20060;-79
2021/08/04 01:03:59;;;;;;;0.20;0.20;;;;;;;14.64;78.39;99436.56;4779554;29;20074;-80
2021/08/04 01:06:38;;;;;;;0.13;0.13;;;;;;;14.62;78.44;99445.94;4769701;30;20066;-80
2021/08/04 01:09:04;;;;;;;0.10;0.10;;;;;;;14.61;78.56;99438.81;4782695;29;20540;-80
2021/08/04 01:11:33;;;;;;;0.20;0.20;;;;;;;14.53;78.79;99444.31;4772086;29;20246;-79
2021/08/04 01:14:02;;;;;;;0.10;0.10;;;;;;;14.49;79.16;99449.25;4786452;29;20051;-81
2021/08/04 01:16:31;;;;;;;0.20;0.20;;;;;;;14.45;79.29;99458.78;4764409;29;20063;-79
2021/08/04 01:19:09;;;;;;;0.20;0.20;;;;;;;14.39;79.53;99448.63;4760192;30;20110;-78
2021/08/04 01:21:56;;;;;;;0.20;0.20;;;;;;;14.31;80.19;99452.25;4782150;29;20104;-80
2021/08/04 01:24:27;;;;;;;0.13;0.13;;;;;;;14.28;80.52;99451.78;4781325;29;20060;-79
2021/08/04 01:26:54;;;;;;;0.10;0.10;;;;;;;14.19;80.39;99456.44;4766079;30;20108;-78
2021/08/04 01:29:24;;;;;;;0.20;0.20;;;;;;;14.19;80.68;99454.56;4755828;30;20099;-81
2021/08/04 01:31:51;;;;;;;0.20;0.20;;;;;;;14.15;81.26;99461.38;4776583;30;20047;-80
2021/08/04 01:34:18;;;;;;;0.20;0.20;;;;;;;14.15;80.99;99458.66;4770086;30;20043;-80
2021/08/04 01:36:44;;;;;;;0.20;0.20;;;;;;;14.14;80.87;99470.53;4762350;29;20047;-78
2021/08/04 01:39:11;;;;;;;0.20;0.20;;;;;;;14.15;80.76;99469.53;4797657;29;20047;-81
2021/08/04 01:41:38;;;;;;;0.20;0.20;;;;;;;14.16;80.67;99471.22;4789754;29;20052;-82
2021/08/04 01:44:07;;;;;;;0.10;0.10;;;;;;;14.18;80.61;99474.59;4767140;30;20039;-81
2021/08/04 01:46:35;;;;;;;0.20;0.20;;;;;;;14.20;80.50;99475.25;4750035;29;20121;-80
2021/08/04 01:49:03;;;;;;;0.10;0.10;;;;;;;14.22;80.26;99475.94;4772153;30;20043;-82
2021/08/04 01:51:29;;;;;;;0.10;0.10;;;;;;;14.19;80.65;99481.75;4780566;29;20051;-81
2021/08/04 01:53:55;;;;;;;0.13;0.13;;;;;;;14.16;81.30;99481.25;4765056;30;20582;-80
2021/08/04 01:56:21;;;;;;;0.20;0.20;;;;;;;14.15;81.22;99477.69;4778017;29;20523;-78
2021/08/04 01:58:47;;;;;;;0.20;0.20;;;;;;;14.13;80.87;99482.44;4758101;30;20510;-81
2021/08/04 02:01:13;;;;;;;0.20;0.20;;;;;;;14.16;80.80;99476.66;4786071;29;20515;-79
2021/08/04 02:03:39;;;;;;;0.20;0.20;;;;;;;14.14;80.98;99478.69;4767371;30;20048;-81
2021/08/04 02:06:10;;;;;;;0.10;0.10;;;;;;;14.12;80.90;99480.75;4771130;30;20058;-82
2021/08/04 02:08:40;;;;;;;0.17;0.17;;;;;;;14.10;80.84;99482.78;4780111;29;20040;-81
2021/08/04 02:11:21;;;;;;;0.20;0.20;;;;;;;14.09;80.90;99489.25;4778712;29;20096;-79
2021/08/04 02:14:00;;;;;;;0.20;0.20;;;;;;;14.07;81.19;99483.13;4771566;29;20047;-81
2021/08/04 02:16:40;;;;;;;0.10;0.10;;;;;;;14.07;81.37;99488.56;4760322;29;20043;-82
2021/08/04 02:19:38;;;;;;;0.20;0.20;;;;;;;14.09;81.19;99497.41;4751924;30;20055;-81
2021/08/04 02:22:11;;;;;;;0.20;0.20;;;;;;;14.11;81.39;99499.94;4756962;30;20147;-77
2021/08/04 02:24:43;;;;;;;0.20;0.20;;;;;;;14.08;81.73;99494.88;4777820;29;20566;-81
2021/08/04 02:27:09;;;;;;;0.10;0.10;;;;;;;14.04;81.73;99499.84;4758547;30;20051;-81
2021/08/04 02:29:37;;;;;;;0.20;0.20;;;;;;;13.99;81.87;99499.50;4769676;29;20040;-82
2021/08/04 02:32:03;;;;;;;0.10;0.10;;;;;;;14.05;81.72;99500.69;4765109;30;20052;-82
2021/08/04 02:34:29;;;;;;;0.20;0.20;;;;;;;14.08;81.66;99500.31;4781989;29;20086;-80
2021/08/04 02:36:56;;;;;;;0.20;0.20;;;;;;;14.16;81.33;99516.59;4780234;29;20048;-81
2021/08/04 02:39:22;;;;;;;0.10;0.10;;;;;;;14.22;80.99;99519.44;4785890;29;20040;-80
2021/08/04 02:41:48;;;;;;;0.20;0.20;;;;;;;14.26;81.05;99502.75;4782496;29;20051;-82
2021/08/04 02:44:15;;;;;;;0.20;0.20;;;;;;;14.33;80.85;99514.59;4783328;29;20434;-82
2021/08/04 02:46:44;;;;;;;0.20;0.20;;;;;;;14.45;80.28;99518.63;4752384;29;20534;-82
2021/08/04 02:49:11;;;;;;;0.20;0.20;;;;;;;14.57;79.82;99517.22;4792046;29;20111;-81
2021/08/04 02:51:39;;;;;;;0.20;0.20;;;;;;;14.65;79.24;99522.59;4792004;29;20051;-84
2021/08/04 02:54:05;;;;;;;0.20;0.20;;;;;;;14.79;78.68;99528.28;4780218;30;20106;-79
2021/08/04 02:56:31;;;;;;;0.20;0.20;;;;;;;14.88;78.20;99516.31;4768905;29;20079;-85
2021/08/04 02:58:57;;;;;;;0.20;0.20;;;;;;;14.98;77.58;99527.78;4760142;30;20095;-83
2021/08/04 03:01:23;;;;;;;0.20;0.20;;;;;;;15.07;77.30;99529.44;4777097;29;20165;-79
2021/08/04 03:03:49;;;;;;;0.20;0.20;;;;;;;15.20;76.87;99529.63;4782419;29;20582;-81
2021/08/04 03:06:15;;;;;;;0.20;0.20;;;;;;;15.29;76.08;99524.13;4792771;29;20161;-81
2021/08/04 03:08:41;;;;;;;0.20;0.20;;;;;;;15.51;75.50;99536.00;4793227;29;20482;-81
2021/08/04 03:11:10;;;;;;;0.20;0.20;;;;;;;15.66;74.50;99529.56;4765905;30;20059;-80
2021/08/04 03:13:36;;;;;;;0.20;0.20;;;;;;;15.87;73.81;99531.56;4767322;29;20046;-82
2021/08/04 03:16:05;;;;;;;0.20;0.20;;;;;;;16.18;72.51;99537.81;4782984;29;20103;-81
2021/08/04 03:18:32;;;;;;;0.28;0.28;;;;;;;16.50;71.38;99537.38;4785584;29;20413;-82
2021/08/04 03:20:58;;;;;;;0.20;0.20;;;;;;;16.80;70.37;99542.78;4770448;30;20089;-82
2021/08/04 03:23:23;;;;;;;0.20;0.20;;;;;;;17.15;68.77;99534.69;4773113;30;20043;-80
2021/08/04 03:25:49;;;;;;;0.20;0.20;;;;;;;17.49;68.12;99548.44;4797463;29;20051;-81
2021/08/04 03:28:15;;;;;;;0.20;0.20;;;;;;;17.83;66.84;99552.28;4776473;29;20043;-82
2021/08/04 03:30:41;;;;;;;0.20;0.20;;;;;;;18.06;65.71;99547.38;4797816;29;20150;-79
2021/08/04 03:33:08;;;;;;;0.20;0.20;;;;;;;18.27;65.31;99540.09;4772386;29;20151;-81
2021/08/04 03:35:34;;;;;;;0.10;0.10;;;;;;;18.20;64.86;99539.22;4797109;29;20070;-81
2021/08/04 03:38:00;;;;;;;0.20;0.20;;;;;;;18.17;65.47;99551.44;4776605;30;20048;-82
2021/08/04 03:40:26;;;;;;;0.20;0.20;;;;;;;18.04;65.56;99560.41;4768019;30;20062;-80
2021/08/04 03:42:52;;;;;;;0.10;0.10;;;;;;;18.06;65.92;99566.53;4801189;29;20051;-81
2021/08/04 03:45:18;;;;;;;0.20;0.20;;;;;;;18.03;66.14;99572.41;4786603;29;20051;-84
2021/08/04 03:47:44;;;;;;;0.20;0.20;;;;;;;18.03;66.11;99571.56;4784884;29;20715;-81
2021/08/04 03:50:11;;;;;;;0.20;0.20;;;;;;;18.15;65.75;99574.56;4775316;30;20055;-82
2021/08/04 03:52:39;;;;;;;0.15;0.15;;;;;;;18.04;66.20;99585.03;4792829;29;20058;-82
2021/08/04 03:55:05;;;;;;;0.20;0.20;;;;;;;18.16;66.64;99587.19;4774071;30;20115;-80
2021/08/04 03:57:31;;;;;;;0.20;0.20;;;;;;;18.25;66.04;99583.25;4766226;30;20077;-79
2021/08/04 03:59:57;;;;;;;0.20;0.20;;;;;;;18.20;66.31;99583.00;4799921;29;20375;-82
2021/08/04 04:02:24;;;;;;;0.20;0.20;;;;;;;17.89;67.38;99584.31;4774848;30;20058;-82
2021/08/04 04:04:50;;;;;;;0.20;0.20;;;;;;;17.76;67.82;99586.94;4778239;29;20047;-82
2021/08/04 04:07:16;;;;;;;0.20;0.20;;;;;;;17.94;67.19;99595.47;4758245;29;20095;-81
2021/08/04 04:09:43;;;;;;;0.20;0.20;;;;;;;18.29;66.83;99593.59;4755733;29;20518;-81
2021/08/04 04:12:09;;;;;;;0.20;0.20;;;;;;;19.08;64.34;99592.19;4784937;29;20059;-78
2021/08/04 04:14:35;;;;;;;0.20;0.20;;;;;;;19.14;63.82;99587.81;4779431;29;20075;-82
2021/08/04 04:17:01;;;;;;;0.30;0.30;;;;;;;19.38;63.16;99587.19;4765965;29;20507;-79
2021/08/04 04:19:27;;;;;;;0.20;0.20;;;;;;;19.84;61.67;99602.81;4790352;29;20105;-81
2021/08/04 04:21:53;;;;;;;0.20;0.20;;;;;;;20.05;61.33;99604.50;4771024;30;20047;-81
2021/08/04 04:24:19;;;;;;;0.20;0.20;;;;;;;19.93;61.52;99596.06;4766571;30;20052;-80
2021/08/04 04:26:45;;;;;;;0.30;0.30;;;;;;;19.91;61.40;99602.81;4792674;29;20055;-84
2021/08/04 04:29:11;;;;;;;0.22;0.22;;;;;;;20.07;60.79;99601.50;4764802;29;20050;-81
2021/08/04 04:31:37;;;;;;;0.20;0.20;;;;;;;20.34;60.15;99597.66;4758387;30;20051;-80
2021/08/04 04:34:03;;;;;;;0.30;0.30;;;;;;;20.58;59.15;99595.25;4764654;29;20038;-80
2021/08/04 04:36:29;;;;;;;0.50;0.50;;;;;;;21.05;58.34;99604.13;4776701;29;20051;-79
2021/08/04 04:38:55;;;;;;;0.40;0.40;;;;;;;21.76;55.79;99612.09;4767410;30;20568;-81
2021/08/04 04:41:21;;;;;;;0.30;0.30;;;;;;;22.19;54.11;99611.28;4790993;29;20039;-82
2021/08/04 04:43:46;;;;;;;0.30;0.30;;;;;;;22.33;53.40;99604.56;4770417;29;20132;-81
2021/08/04 04:46:12;;;;;;;0.40;0.40;;;;;;;22.80;52.09;99595.75;4766728;30;20051;-81
2021/08/04 04:48:38;;;;;;;0.40;0.40;;;;;;;23.02;49.69;99598.88;4783992;29;20523;-78
2021/08/04 04:51:04;;;;;;;0.40;0.40;;;;;;;22.72;50.02;99602.41;4778040;29;20288;-79
2021/08/04 04:53:30;;;;;;;0.40;0.40;;;;;;;22.97;49.38;99612.53;4754735;30;20058;-81
2021/08/04 04:55:56;;;;;;;0.40;0.40;;;;;;;23.33;47.63;99598.63;4763569;30;20201;-81
2021/08/04 04:58:22;;;;;;;0.20;0.20;;;;;;;23.47;47.18;99601.16;4766297;30;20044;-84
2021/08/04 05:00:48;;;;;;;0.10;0.10;;;;;;;23.07;48.46;99607.25;4777460;29;20491;-82
2021/08/04 05:03:15;;;;;;;0.22;0.22;;;;;;;22.99;48.88;99610.34;4781926;29;20062;-83
2021/08/04 05:05:41;;;;;;;0.20;0.20;;;;;;;23.40;48.17;99616.97;4748942;29;20050;-83
2021/08/04 05:08:08;;;;;;;0.50;0.50;;;;;;;24.08;46.43;99608.22;4766848;30;20327;-83
2021/08/04 05:10:34;;;;;;;0.40;0.40;;;;;;;24.58;44.85;99613.22;4767759;30;20146;-83
2021/08/04 05:13:00;;;;;;;0.50;0.50;;;;;;;24.86;43.59;99609.66;4735511;29;20047;-81
2021/08/04 05:15:27;;;;;;;0.40;0.40;;;;;;;25.17;43.54;99605.59;4782795;29;20048;-83
2021/08/04 05:17:53;;;;;;;0.50;0.50;;;;;;;25.58;42.30;99611.84;4773631;29;20133;-85
2021/08/04 05:20:21;;;;;;;0.50;0.50;;;;;;;25.95;41.49;99616.94;4761656;30;20395;-83
2021/08/04 05:22:47;;;;;;;0.30;0.30;;;;;;;26.13;40.60;99624.97;4771611;29;20047;-83
2021/08/04 05:25:13;;;;;;;0.20;0.20;;;;;;;25.66;42.09;99619.75;4758067;30;20205;-82
2021/08/04 05:27:39;;;;;;;0.50;0.50;;;;;;;25.63;41.76;99614.72;4779757;29;20075;-83
2021/08/04 05:30:06;;;;;;;0.22;0.22;;;;;;;25.82;41.13;99609.81;4766013;30;20044;-83
2021/08/04 05:32:32;;;;;;;0.20;0.20;;;;;;;25.74;41.05;99616.59;4756384;30;20055;-84
2021/08/04 05:34:58;;;;;;;0.20;0.20;;;;;;;25.67;40.90;99624.22;4752368;30;20047;-78
2021/08/04 05:37:23;;;;;;;0.40;0.40;;;;;;;25.53;40.34;99620.09;4770871;29;20054;-82
2021/08/04 05:39:49;;;;;;;0.55;0.55;;;;;;;25.76;40.17;99623.78;4756831;29;20051;-82
2021/08/04 05:42:15;;;;;;;0.52;0.52;;;;;;;26.16;40.08;99627.22;4770447;29;20048;-79
2021/08/04 05:44:41;;;;;;;0.40;0.40;;;;;;;26.62;38.79;99627.94;4770312;29;20054;-82
2021/08/04 05:47:07;;;;;;;0.60;0.60;;;;;;;27.23;37.42;99616.72;4773446;29;20148;-79
2021/08/04 05:49:32;;;;;;;0.50;0.50;;;;;;;27.80;35.77;99615.34;4759754;30;20047;-81
2021/08/04 05:51:59;;;;;;;0.50;0.50;;;;;;;28.11;34.51;99622.81;4773771;29;20054;-82
2021/08/04 05:54:25;;;;;;;0.50;0.50;;;;;;;28.60;34.27;99630.09;4753181;30;20055;-80
2021/08/04 05:56:51;;;;;;;0.60;0.60;;;;;;;28.52;34.73;99628.69;4775748;29;20153;-84
2021/08/04 05:59:17;;;;;;;0.60;0.60;;;;;;;28.70;34.33;99629.28;4778795;29;20067;-84
2021/08/04 06:01:43;;;;;;;0.60;0.60;;;;;;;28.84;34.44;99620.19;4740879;29;20043;-82
2021/08/04 06:04:10;;;;;;;0.50;0.50;;;;;;;29.27;33.36;99634.00;4778093;29;20073;-83
2021/08/04 06:06:37;;;;;;;0.60;0.60;;;;;;;29.40;33.99;99627.91;4748917;29;20043;-84
2021/08/04 06:09:04;;;;;;;0.70;0.70;;;;;;;28.65;34.36;99626.50;4763190;30;20039;-85
2021/08/04 06:14:32;;;;;;;0.65;0.65;;;;;;;29.21;33.82;99632.28;4962581;24;20047;-86
2021/08/04 06:17:04;;;;;;;0.60;0.60;;;;;;;29.53;32.34;99627.34;4792069;29;20051;-84
2021/08/04 06:19:32;;;;;;;0.60;0.60;;;;;;;29.03;32.40;99634.50;4939267;24;20039;-86
2021/08/04 06:22:02;;;;;;;0.70;0.70;;;;;;;29.27;32.33;99645.13;4762107;29;20062;-84
2021/08/04 06:24:30;;;;;;;0.65;0.65;;;;;;;29.13;32.31;99627.28;4795848;29;20074;-86
2021/08/04 06:26:57;;;;;;;0.70;0.70;;;;;;;29.21;32.54;99635.91;4801844;29;20034;-85
2021/08/04 06:29:24;;;;;;;0.80;0.80;;;;;;;29.23;32.76;99638.44;4773341;29;20143;-84
2021/08/04 06:31:53;;;;;;;0.70;0.70;;;;;;;30.48;31.12;99637.94;4760768;29;20047;-85
2021/08/04 06:34:21;;;;;;;0.70;0.70;;;;;;;30.68;30.27;99639.00;4774775;29;20073;-83
2021/08/04 06:36:50;;;;;;;0.80;0.80;;;;;;;31.07;29.61;99644.72;4783128;29;20047;-85
2021/08/04 06:39:18;;;;;;;0.47;0.47;;;;;;;31.13;29.46;99635.19;5059740;24;20055;-86
2021/08/04 06:41:45;;;;;;;0.80;0.80;;;;;;;31.66;28.73;99640.19;4809867;29;20059;-83
2021/08/04 06:44:15;;;;;;;0.80;0.80;;;;;;;32.12;28.44;99637.06;4754028;29;20148;-84
2021/08/04 06:46:43;;;;;;;0.80;0.80;;;;;;;32.49;27.85;99642.00;4794105;29;20065;-85
2021/08/04 06:49:14;;;;;;;0.10;0.10;;;;;;;31.38;29.75;99650.19;4823479;29;20045;-85
2021/08/04 06:51:43;;;;;;;0.10;0.10;;;;;;;30.74;30.75;99649.03;4770391;29;20101;-84
2021/08/04 06:54:10;;;;;;;0.90;0.90;;;;;;;31.10;29.38;99643.31;4792015;29;20043;-84
2021/08/04 06:56:38;;;;;;;0.10;0.10;;;;;;;29.74;31.28;99649.69;4768572;29;20046;-84
2021/08/04 06:59:07;;;;;;;0.10;0.10;;;;;;;27.48;35.32;99641.13;4793422;29;20474;-86
2021/08/04 07:01:33;;;;;;;0.20;0.20;;;;;;;26.60;37.22;99643.97;4784678;29;20050;-81
2021/08/04 07:04:00;;;;;;;0.13;0.13;;;;;;;28.06;34.52;99647.78;4786640;29;20190;-83
2021/08/04 07:06:27;;;;;;;1.00;1.00;;;;;;;29.07;32.77;99645.91;4792857;29;20044;-87
2021/08/04 07:08:55;;;;;;;0.10;0.10;;;;;;;28.80;33.11;99646.03;4804913;29;20468;-84
2021/08/04 07:11:22;;;;;;;1.00;1.00;;;;;;;29.94;31.20;99644.09;4783454;29;20047;-84
2021/08/04 07:13:50;;;;;;;0.30;0.30;;;;;;;30.73;30.73;99638.97;4806760;29;20035;-83
2021/08/04 07:16:18;;;;;;;0.10;0.10;;;;;;;29.37;32.24;99628.44;4764445;29;20043;-83
2021/08/04 07:18:46;;;;;;;1.10;1.10;;;;;;;28.79;32.96;99644.38;4790297;29;20047;-82
2021/08/04 07:21:12;;;;;;;1.10;1.10;;;;;;;30.32;30.87;99650.25;4784639;29;20046;-82
2021/08/04 07:23:40;;;;;;;1.00;1.00;;;;;;;30.77;29.76;99645.69;4795404;29;20047;-79
2021/08/04 07:26:06;;;;;;;1.10;1.10;;;;;;;31.22;29.15;99646.59;4791964;29;20390;-83
2021/08/04 07:28:33;;;;;;;1.00;1.00;;;;;;;31.34;29.27;99649.94;4776744;29;20379;-83
2021/08/04 07:30:59;;;;;;;1.10;1.10;;;;;;;32.34;27.60;99640.19;4781483;29;20061;-82
2021/08/04 07:33:26;;;;;;;0.90;0.90;;;;;;;33.50;25.94;99649.47;4812566;29;20051;-83
2021/08/04 07:35:52;;;;;;;1.00;1.00;;;;;;;32.13;27.49;99647.09;4777642;29;20073;-85
2021/08/04 07:38:21;;;;;;;0.10;0.10;;;;;;;30.11;29.96;99643.00;4804747;29;20039;-86
2021/08/04 07:40:47;;;;;;;0.17;0.17;;;;;;;28.65;32.44;99648.75;4769349;29;20509;-86
2021/08/04 07:43:14;;;;;;;1.27;1.27;;;;;;;29.39;31.51;99654.06;4765479;29;20046;-83
2021/08/04 07:45:40;;;;;;;1.30;1.30;;;;;;;30.75;29.15;99653.50;4759664;29;20061;-82
2021/08/04 07:48:08;;;;;;;1.10;1.10;;;;;;;31.43;27.41;99650.97;4791979;29;20619;-83
2021/08/04 07:50:38;;;;;;;0.10;0.10;;;;;;;30.90;27.98;99644.25;4824979;29;20245;-84
2021/08/04 07:53:07;;;;;;;0.10;0.10;;;;;;;29.54;29.92;99640.19;4782955;30;20035;-86
2021/08/04 07:55:34;;;;;;;0.20;0.20;;;;;;;30.32;29.31;99633.53;4784444;29;20050;-87
2021/08/04 07:58:02;;;;;;;0.60;0.60;;;;;;;30.47;28.60;99644.63;4774766;29;20085;-85
2021/08/04 08:00:30;;;;;;;1.40;1.40;;;;;;;30.50;27.83;99638.50;4805502;29;20153;-84
2021/08/04 08:02:59;;;;;;;1.30;1.30;;;;;;;32.20;26.88;99639.22;4799815;29;20082;-84
2021/08/04 08:05:26;;;;;;;1.02;1.02;;;;;;;31.96;26.21;99635.50;4801599;29;20050;-83
2021/08/04 08:07:53;;;;;;;0.75;0.75;;;;;;;32.38;25.72;99630.06;4802029;29;20706;-85
2021/08/04 08:10:26;;;;;;;1.20;1.20;;;;;;;33.85;24.25;99640.47;4802102;29;20058;-87
2021/08/04 08:12:53;;;;;;;1.10;1.10;;;;;;;33.38;24.75;99641.47;4894438;24;20150;-85
2021/08/04 08:15:21;;;;;;;1.30;1.30;;;;;;;34.42;24.16;99639.53;4777923;29;20071;-84
2021/08/04 08:17:51;;;;;;;1.17;1.17;;;;;;;34.24;24.00;99625.25;4744610;30;20075;-84
2021/08/04 08:20:19;;;;;;;1.20;1.20;;;;;;;33.82;24.21;99643.06;4774144;29;20051;-85
2021/08/04 08:22:50;;;;;;;1.20;1.20;;;;;;;34.59;23.20;99638.94;4735092;30;20063;-84
2021/08/04 08:25:18;;;;;;;1.20;1.20;;;;;;;35.88;21.48;99639.47;4771541;30;20041;-84
2021/08/04 08:27:46;;;;;;;1.30;1.30;;;;;;;36.86;20.42;99637.69;4733932;30;20485;-83
2021/08/04 08:30:13;;;;;;;0.52;0.52;;;;;;;36.70;20.53;99632.50;4731133;30;20039;-82
2021/08/04 08:32:40;;;;;;;0.10;0.10;;;;;;;34.74;22.31;99641.44;4758935;30;20077;-83
2021/08/04 08:35:08;;;;;;;0.10;0.10;;;;;;;33.23;24.46;99641.69;4784477;29;20091;-85
2021/08/04 08:37:42;;;;;;;0.10;0.10;;;;;;;31.97;26.20;99628.81;4807660;24;20803;-85
2021/08/04 08:40:10;;;;;;;0.10;0.10;;;;;;;31.32;27.34;99635.41;4742587;30;20495;-83
2021/08/04 08:42:41;;;;;;;0.10;0.10;;;;;;;30.79;28.10;99637.88;4747776;30;20040;-83
2021/08/04 08:45:10;;;;;;;0.10;0.10;;;;;;;30.00;30.10;99640.22;4753978;30;20059;-84
2021/08/04 08:47:40;;;;;;;0.10;0.10;;;;;;;29.55;29.80;99636.28;4720438;30;20091;-84
2021/08/04 08:50:09;;;;;;;0.10;0.10;;;;;;;28.49;32.29;99634.78;4741687;30;20083;-83
2021/08/04 08:52:36;;;;;;;0.13;0.13;;;;;;;27.35;33.89;99641.56;4754109;30;20024;-84
2021/08/04 08:55:08;;;;;;;0.10;0.10;;;;;;;27.44;34.02;99637.22;4737076;30;20105;-84
2021/08/04 08:57:35;;;;;;;0.10;0.10;;;;;;;27.24;33.93;99646.19;4755569;30;20064;-83
2021/08/04 09:00:03;;;;;;;0.13;0.13;;;;;;;27.38;34.21;99646.59;4749053;30;20056;-83
2021/08/04 09:02:30;;;;;;;0.10;0.10;;;;;;;26.31;37.09;99645.19;4731870;30;20044;-84
2021/08/04 09:05:01;;;;;;;0.10;0.10;;;;;;;25.76;38.60;99651.47;4749338;30;20048;-83
2021/08/04 09:07:48;;;;;;;0.20;0.20;;;;;;;25.98;37.89;99653.28;4728797;30;20044;-85
2021/08/04 09:10:35;;;;;;;0.10;0.10;;;;;;;25.89;39.20;99651.19;4749015;30;20043;-83
2021/08/04 09:13:04;;;;;;;0.20;0.20;;;;;;;25.74;39.51;99649.81;4724484;30;20063;-82
2021/08/04 09:15:37;;;;;;;0.15;0.15;;;;;;;26.42;39.19;99647.00;4750011;30;20025;-85
2021/08/04 09:18:07;;;;;;;0.20;0.20;;;;;;;26.79;37.12;99649.22;4728518;30;20127;-84
2021/08/04 09:20:53;;;;;;;0.20;0.20;;;;;;;26.84;36.81;99652.03;4756620;30;20067;-83
2021/08/04 09:23:24;;;;;;;0.20;0.20;;;;;;;27.20;36.81;99649.72;4726459;30;20052;-86
2021/08/04 09:26:05;;;;;;;0.20;0.20;;;;;;;27.54;35.87;99634.53;4724925;30;20059;-86
2021/08/04 09:28:55;;;;;;;0.80;0.80;;;;;;;27.90;34.70;99646.00;4746268;30;20044;-85
2021/08/04 09:31:45;;;;;;;0.90;0.90;;;;;;;29.70;31.19;99645.81;4734155;30;20096;-83
2021/08/04 09:34:37;;;;;;;0.20;0.20;;;;;;;29.95;30.76;99645.81;4759873;30;20064;-85
2021/08/04 09:37:09;;;;;;;0.20;0.20;;;;;;;29.37;31.81;99634.03;4836986;24;20075;-85
2021/08/04 09:39:58;;;;;;;0.20;0.20;;;;;;;28.43;32.54;99641.41;4835243;24;21182;-85
2021/08/04 09:42:45;;;;;;;0.20;0.20;;;;;;;28.29;32.68;99624.31;4866951;24;20065;-83
2021/08/04 09:45:13;;;;;;;0.88;0.88;;;;;;;29.24;31.86;99634.53;4747865;30;20140;-83
2021/08/04 09:47:59;;;;;;;1.30;1.30;;;;;;;30.47;29.31;99630.69;4723574;30;20048;-80
2021/08/04 09:50:31;;;;;;;0.50;0.50;;;;;;;29.94;29.80;99629.34;4756980;29;20599;-83
2021/08/04 09:53:00;;;;;;;0.20;0.20;;;;;;;29.60;30.16;99629.06;4745455;30;20055;-83
2021/08/04 09:55:31;;;;;;;0.20;0.20;;;;;;;29.34;29.94;99629.00;4758795;30;21353;-83
2021/08/04 09:57:59;;;;;;;0.28;0.28;;;;;;;29.47;30.52;99628.47;4773857;30;20047;-84
2021/08/04 10:00:26;;;;;;;0.30;0.30;;;;;;;29.68;30.87;99625.72;4735488;30;20505;-82
2021/08/04 10:03:11;;;;;;;0.20;0.20;;;;;;;29.54;30.83;99622.59;4744411;30;20052;-84
2021/08/04 10:05:44;;;;;;;0.20;0.20;;;;;;;28.70;32.44;99623.72;4745813;30;20036;-83
2021/08/04 10:08:12;;;;;;;0.30;0.30;;;;;;;28.56;32.89;99618.69;4724140;30;20051;-84
2021/08/04 10:10:51;;;;;;;1.33;1.33;;;;;;;30.28;30.45;99629.63;4744778;30;20064;-83
2021/08/04 10:13:24;;;;;;;0.30;0.30;;;;;;;29.40;31.56;99613.97;4754414;30;20048;-82
2021/08/04 10:15:58;;;;;;;0.20;0.20;;;;;;;29.39;31.62;99609.50;4746782;30;20047;-80
2021/08/04 10:18:30;;;;;;;0.10;0.10;;;;;;;28.91;32.66;99619.09;4724703;30;20130;-81
2021/08/04 10:21:04;;;;;;;0.10;0.10;;;;;;;27.84;34.28;99613.72;4762019;30;20073;-84
2021/08/04 10:23:33;;;;;;;0.10;0.10;;;;;;;27.39;35.58;99612.19;4765787;30;20596;-83
2021/08/04 10:26:01;;;;;;;0.10;0.10;;;;;;;26.96;35.98;99616.69;4771992;30;20586;-82
2021/08/04 10:28:28;;;;;;;0.03;0.03;;;;;;;26.71;36.25;99621.94;4730328;30;20056;-81
2021/08/04 10:30:57;;;;;;;0.10;0.10;;;;;;;26.59;36.97;99617.34;4733622;30;20400;-81
2021/08/04 10:33:25;;;;;;;0.10;0.10;;;;;;;26.10;37.49;99619.94;4753830;30;20044;-83
2021/08/04 10:35:58;;;;;;;0.10;0.10;;;;;;;25.82;37.88;99618.13;4756532;30;20044;-84
2021/08/04 10:38:26;;;;;;;0.10;0.10;;;;;;;25.69;38.45;99613.72;4747545;30;20047;-84
2021/08/04 10:41:11;;;;;;;0.10;0.10;;;;;;;25.70;39.20;99603.47;4723323;30;20538;-83
2021/08/04 10:43:54;;;;;;;0.10;0.10;;;;;;;25.34;41.34;99616.72;4748637;30;20046;-81
2021/08/04 10:46:30;;;;;;;0.10;0.10;;;;;;;25.21;42.16;99612.31;4742766;30;20135;-83
2021/08/04 10:49:04;;;;;;;0.17;0.17;;;;;;;25.15;42.22;99617.97;4769213;30;20051;-83
2021/08/04 10:51:37;;;;;;;0.10;0.10;;;;;;;24.53;43.26;99618.63;4757762;30;20079;-83
2021/08/04 10:54:17;;;;;;;0.10;0.10;;;;;;;24.07;44.25;99617.59;4755605;30;20054;-83
2021/08/04 10:56:45;;;;;;;0.20;0.20;;;;;;;23.79;44.53;99621.03;4784193;30;20079;-81
2021/08/04 10:59:12;;;;;;;0.30;0.30;;;;;;;24.22;44.33;99620.69;4766406;30;20051;-82
2021/08/04 11:01:44;;;;;;;0.30;0.30;;;;;;;25.04;42.92;99616.91;4751456;30;20047;-83
2021/08/04 11:04:14;;;;;;;0.20;0.20;;;;;;;25.23;42.04;99621.22;4753102;30;20052;-82
2021/08/04 11:07:11;;;;;;;0.20;0.20;;;;;;;25.10;42.12;99615.97;4753830;30;20144;-82
2021/08/04 11:09:42;;;;;;;0.20;0.20;;;;;;;24.88;42.61;99612.19;4755821;30;20140;-83
2021/08/04 11:12:11;;;;;;;0.20;0.20;;;;;;;24.83;42.56;99617.59;4759801;30;20078;-82
2021/08/04 11:14:54;;;;;;;0.20;0.20;;;;;;;25.25;41.48;99619.03;4758699;30;20120;-82
2021/08/04 11:17:31;;;;;;;0.20;0.20;;;;;;;25.62;39.44;99610.25;4770903;30;20059;-81
2021/08/04 11:20:01;;;;;;;0.20;0.20;;;;;;;25.66;39.30;99611.44;4757553;30;20485;-82
2021/08/04 11:22:39;;;;;;;0.90;0.90;;;;;;;26.70;36.47;99623.88;4754743;30;20062;-83
2021/08/04 11:25:11;;;;;;;0.60;0.60;;;;;;;27.43;36.36;99616.13;4774171;30;20055;-84
2021/08/04 11:27:44;;;;;;;0.20;0.20;;;;;;;26.69;37.28;99623.03;4762690;30;20052;-82
2021/08/04 11:30:29;;;;;;;0.20;0.20;;;;;;;26.14;36.82;99610.03;4764251;30;20111;-83
2021/08/04 11:33:18;;;;;;;0.10;0.10;;;;;;;26.17;37.39;99615.03;4761713;30;20055;-82
2021/08/04 11:36:05;;;;;;;0.15;0.15;;;;;;;25.86;37.63;99612.91;4739212;29;20434;-83
2021/08/04 11:38:57;;;;;;;0.10;0.10;;;;;;;26.34;37.21;99628.06;4762568;30;20044;-83
2021/08/04 11:41:35;;;;;;;0.20;0.20;;;;;;;26.33;36.97;99629.16;4764383;30;20051;-84
2021/08/04 11:44:13;;;;;;;0.10;0.10;;;;;;;26.52;37.39;99633.31;4756078;30;20131;-83
2021/08/04 11:46:50;;;;;;;0.15;0.15;;;;;;;25.83;40.46;99630.03;4758491;30;20044;-85
2021/08/04 11:49:21;;;;;;;0.10;0.10;;;;;;;25.69;39.86;99641.41;4720974;30;20048;-82